createdAt,value
2022-07-29T00:01:19.046Z,101072.50
2022-07-29T00:03:51.892Z,101072.67
2022-07-29T00:06:24.099Z,101078.88
2022-07-29T00:08:56.449Z,101077.36
2022-07-29T00:11:28.697Z,101081.34
2022-07-29T00:14:01.210Z,101083.13
2022-07-29T00:16:33.536Z,101078.96
2022-07-29T00:19:08.504Z,101076.08
2022-07-29T00:21:40.777Z,101079.55
2022-07-29T00:24:13.991Z,101079.00
2022-07-29T00:26:46.276Z,101081.68
2022-07-29T00:29:33.708Z,101082.48
2022-07-29T00:32:07.535Z,101076.74
2022-07-29T00:34:57.484Z,101073.94
2022-07-29T00:37:29.754Z,101081.04
2022-07-29T00:40:01.925Z,101084.02
2022-07-29T00:42:43.471Z,101081.39
2022-07-29T00:45:18.526Z,101080.02
2022-07-29T00:47:49.253Z,101080.91
2022-07-29T00:50:24.722Z,101077.79
2022-07-29T00:52:57.678Z,101076.74
2022-07-29T00:55:30.193Z,101073.79
2022-07-29T00:58:04.049Z,101077.02
2022-07-29T01:00:38.031Z,101082.65
2022-07-29T01:03:10.444Z,101073.48
2022-07-29T01:05:50.458Z,101084.58
2022-07-29T01:08:26.206Z,101083.45
2022-07-29T01:10:59.127Z,101079.77
2022-07-29T01:13:34.345Z,101076.95
2022-07-29T01:16:12.680Z,101071.96
2022-07-29T01:18:49.114Z,101075.35
2022-07-29T01:21:45.376Z,101072.45
2022-07-29T01:24:36.050Z,101071.41
2022-07-29T01:27:25.445Z,101062.32
2022-07-29T01:30:01.077Z,101076.23
2022-07-29T01:32:40.787Z,101077.66
2022-07-29T01:35:19.704Z,101064.86
2022-07-29T01:37:59.024Z,101073.55
2022-07-29T01:40:35.658Z,101068.30
2022-07-29T01:43:15.021Z,101061.00
2022-07-29T01:45:50.229Z,101055.13
2022-07-29T01:48:26.900Z,101038.89
2022-07-29T01:51:04.553Z,101022.41
2022-07-29T01:53:42.518Z,101055.61
2022-07-29T01:56:15.717Z,101053.84
2022-07-29T01:58:49.813Z,101056.65
2022-07-29T02:01:24.119Z,101057.95
2022-07-29T02:03:59.373Z,101061.16
2022-07-29T02:06:35.423Z,101055.13
2022-07-29T02:09:09.245Z,101049.98
2022-07-29T02:11:42.839Z,101044.35
2022-07-29T02:14:16.707Z,101040.25
2022-07-29T02:16:55.550Z,101038.73
2022-07-29T02:19:30.121Z,101032.63
2022-07-29T02:22:04.520Z,101029.25
2022-07-29T02:24:39.736Z,101032.95
2022-07-29T02:27:13.138Z,101033.20
2022-07-29T02:29:47.737Z,101017.29
2022-07-29T02:32:23.258Z,101031.51
2022-07-29T02:34:58.107Z,101028.70
2022-07-29T02:37:31.762Z,101021.86
2022-07-29T02:40:06.371Z,101033.99
2022-07-29T02:42:41.079Z,101036.17
2022-07-29T02:45:14.794Z,101026.84
2022-07-29T02:47:52.121Z,101034.01
2022-07-29T02:50:33.956Z,101035.47
2022-07-29T02:53:11.369Z,101029.61
2022-07-29T02:55:52.962Z,101029.36
2022-07-29T02:58:31.462Z,101027.43
2022-07-29T03:01:06.627Z,101023.73
2022-07-29T03:03:42.372Z,101027.27
2022-07-29T03:06:37.459Z,101024.20
2022-07-29T03:09:13.746Z,101023.64
2022-07-29T03:11:49.714Z,101020.35
2022-07-29T03:14:26.732Z,101016.89
2022-07-29T03:16:59.941Z,101011.82
2022-07-29T03:19:33.667Z,101012.46
2022-07-29T03:22:06.626Z,101012.14
2022-07-29T03:24:40.422Z,101015.65
2022-07-29T03:27:15.360Z,101016.21
2022-07-29T03:29:49.938Z,101016.23
2022-07-29T03:32:25.201Z,101013.98
2022-07-29T03:35:00.189Z,101017.09
2022-07-29T03:37:32.661Z,101020.07
2022-07-29T03:40:09.715Z,101023.21
2022-07-29T03:42:45.406Z,101018.45
2022-07-29T03:45:21.335Z,101022.33
2022-07-29T03:48:00.908Z,101017.65
2022-07-29T03:50:35.369Z,101012.66
2022-07-29T03:53:07.788Z,101013.61
2022-07-29T03:55:44.955Z,101011.27
2022-07-29T03:58:18.245Z,101016.02
2022-07-29T04:00:51.326Z,101017.87
2022-07-29T04:03:25.666Z,101018.75
2022-07-29T04:06:08.989Z,101023.08
2022-07-29T04:08:42.295Z,101024.63
2022-07-29T04:11:14.930Z,101025.41
2022-07-29T04:13:49.947Z,101027.44
2022-07-29T04:16:23.348Z,101032.66
2022-07-29T04:18:56.845Z,101032.40
2022-07-29T04:21:29.386Z,101036.48
2022-07-29T04:24:02.946Z,101041.49
2022-07-29T04:26:36.966Z,101043.33
2022-07-29T04:29:09.321Z,101046.45
2022-07-29T04:31:42.359Z,101038.25
2022-07-29T04:34:15.602Z,101047.81
2022-07-29T04:36:50.074Z,101051.35
2022-07-29T04:39:23.156Z,101036.73
2022-07-29T04:41:56.459Z,101048.52
2022-07-29T04:44:29.797Z,101050.45
2022-07-29T04:47:02.524Z,101050.75
2022-07-29T04:49:34.805Z,101048.60
2022-07-29T04:52:08.080Z,101047.14
2022-07-29T04:54:40.354Z,101047.61
2022-07-29T04:57:12.831Z,101038.13
2022-07-29T04:59:46.089Z,101048.50
2022-07-29T05:02:23.113Z,101047.11
2022-07-29T05:04:54.839Z,101049.34
2022-07-29T05:07:27.162Z,101042.66
2022-07-29T05:09:59.562Z,101044.52
2022-07-29T05:12:31.924Z,101045.39
2022-07-29T05:15:04.070Z,101039.67
2022-07-29T05:17:36.419Z,101038.27
2022-07-29T05:20:10.898Z,101039.14
2022-07-29T05:22:43.083Z,101041.86
2022-07-29T05:25:15.480Z,101042.50
2022-07-29T05:27:47.796Z,101044.79
2022-07-29T05:30:25.253Z,101050.65
2022-07-29T05:32:57.660Z,101058.67
2022-07-29T05:35:30.626Z,101054.63
2022-07-29T05:38:02.978Z,101055.09
2022-07-29T05:40:35.425Z,101047.64
2022-07-29T05:43:07.536Z,101047.53
2022-07-29T05:45:49.990Z,101050.22
2022-07-29T05:48:23.329Z,101048.71
2022-07-29T05:50:55.787Z,101050.02
2022-07-29T05:53:28.269Z,101047.98
2022-07-29T05:56:00.556Z,101049.08
2022-07-29T05:58:33.175Z,101042.36
2022-07-29T06:01:05.925Z,101040.77
2022-07-29T06:03:38.936Z,101034.15
2022-07-29T06:06:11.592Z,101032.83
2022-07-29T06:08:44.117Z,101033.38
2022-07-29T06:11:16.547Z,101032.70
2022-07-29T06:13:48.662Z,101031.11
2022-07-29T06:16:29.920Z,101029.89
2022-07-29T06:19:02.607Z,101030.61
2022-07-29T06:21:35.549Z,101036.15
2022-07-29T06:24:13.515Z,101039.05
2022-07-29T06:26:46.234Z,101042.50
2022-07-29T06:29:18.445Z,101046.50
2022-07-29T06:31:50.785Z,101044.79
2022-07-29T06:34:23.280Z,101043.76
2022-07-29T06:36:55.691Z,101036.58
2022-07-29T06:39:29.110Z,101037.34
2022-07-29T06:42:01.423Z,101022.24
2022-07-29T06:44:34.908Z,101039.27
2022-07-29T06:47:08.774Z,101043.73
2022-07-29T06:49:40.940Z,101044.08
2022-07-29T06:52:13.032Z,101044.08
2022-07-29T06:54:49.138Z,101044.88
2022-07-29T07:00:25.574Z,101031.27
2022-07-29T07:02:58.105Z,101042.68
2022-07-29T07:05:30.529Z,101040.33
2022-07-29T07:08:02.800Z,101038.34
2022-07-29T07:10:36.453Z,101036.70
2022-07-29T07:13:08.978Z,101036.47
2022-07-29T07:15:41.263Z,101036.59
2022-07-29T07:18:13.506Z,101033.06
2022-07-29T07:20:46.718Z,101027.46
2022-07-29T07:23:19.028Z,101033.98
2022-07-29T07:25:53.539Z,101028.48
2022-07-29T07:28:25.789Z,101029.43
2022-07-29T07:30:59.295Z,101029.52
2022-07-29T07:33:33.431Z,101030.81
2022-07-29T07:36:06.250Z,101031.77
2022-07-29T07:38:38.551Z,101035.77
2022-07-29T07:41:11.370Z,101038.11
2022-07-29T07:43:44.060Z,101036.35
2022-07-29T07:46:16.864Z,101040.31
2022-07-29T07:48:49.717Z,101042.15
2022-07-29T07:51:22.054Z,101027.98
2022-07-29T07:53:54.332Z,101038.04
2022-07-29T07:56:30.658Z,101040.75
2022-07-29T07:59:05.863Z,101039.96
2022-07-29T08:01:55.008Z,101041.19
2022-07-29T08:04:29.601Z,101040.10
2022-07-29T08:07:02.996Z,101049.16
2022-07-29T08:09:35.604Z,101048.14
2022-07-29T08:12:10.176Z,101052.23
2022-07-29T08:14:42.475Z,101057.00
2022-07-29T08:17:15.013Z,101057.84
2022-07-29T08:19:49.383Z,101060.06
2022-07-29T08:22:22.204Z,101064.46
2022-07-29T08:24:55.694Z,101061.92
2022-07-29T08:27:45.505Z,101062.90
2022-07-29T08:30:17.899Z,101060.60
2022-07-29T08:32:58.129Z,101057.19
2022-07-29T08:35:35.071Z,101043.52
2022-07-29T08:38:08.256Z,101058.36
2022-07-29T08:40:41.843Z,101058.81
2022-07-29T08:43:14.280Z,101058.36
2022-07-29T08:45:48.640Z,101061.55
2022-07-29T08:48:25.743Z,101057.78
2022-07-29T08:50:59.264Z,101056.52
2022-07-29T08:53:32.884Z,101055.90
2022-07-29T08:56:05.445Z,101056.00
2022-07-29T08:58:38.733Z,101058.82
2022-07-29T09:01:13.952Z,101055.27
2022-07-29T09:03:49.598Z,101053.23
2022-07-29T09:06:28.976Z,101052.88
2022-07-29T09:09:02.510Z,101050.42
2022-07-29T09:11:36.386Z,101051.06
2022-07-29T09:14:10.833Z,101054.55
2022-07-29T09:16:53.661Z,101052.93
2022-07-29T09:19:31.531Z,101040.73
2022-07-29T09:22:06.142Z,101056.95
2022-07-29T09:24:44.111Z,101044.20
2022-07-29T09:27:30.036Z,101054.70
2022-07-29T09:30:04.712Z,101050.04
2022-07-29T09:32:35.861Z,101047.73
2022-07-29T09:35:22.704Z,101046.59
2022-07-29T09:37:55.662Z,101048.02
2022-07-29T09:40:29.566Z,101039.27
2022-07-29T09:43:11.853Z,101040.63
2022-07-29T09:45:44.692Z,101037.85
2022-07-29T09:48:22.195Z,101042.02
2022-07-29T09:50:57.024Z,101040.06
2022-07-29T09:53:35.230Z,101037.04
2022-07-29T09:56:09.126Z,101032.27
2022-07-29T09:58:42.033Z,101029.61
2022-07-29T10:01:15.152Z,101027.32
2022-07-29T10:03:56.125Z,101029.50
2022-07-29T10:06:29.567Z,101030.83
2022-07-29T10:09:13.246Z,101027.94
2022-07-29T10:12:04.328Z,101025.80
2022-07-29T10:14:37.418Z,101017.86
2022-07-29T10:17:11.293Z,101022.55
2022-07-29T10:19:45.364Z,101017.36
2022-07-29T10:22:43.287Z,101003.63
2022-07-29T10:25:12.259Z,101005.10
2022-07-29T10:27:43.518Z,101002.98
2022-07-29T10:30:17.487Z,101001.98
2022-07-29T10:33:18.256Z,101001.81
2022-07-29T10:36:04.411Z,100990.67
2022-07-29T10:38:58.071Z,100994.84
2022-07-29T10:41:47.763Z,100998.48
2022-07-29T10:44:24.135Z,100998.55
2022-07-29T10:46:57.051Z,100987.01
2022-07-29T10:49:31.260Z,101001.60
2022-07-29T10:52:09.596Z,101000.41
2022-07-29T10:54:53.757Z,100995.55
2022-07-29T10:57:53.926Z,101003.58
2022-07-29T11:00:35.382Z,101001.91
2022-07-29T11:03:10.803Z,100994.69
2022-07-29T11:05:59.403Z,100991.35
2022-07-29T11:08:32.255Z,100989.21
2022-07-29T11:11:39.763Z,100995.14
2022-07-29T11:14:16.640Z,100996.98
2022-07-29T11:17:06.402Z,100994.35
2022-07-29T11:19:44.745Z,100995.66
2022-07-29T11:22:36.520Z,100992.08
2022-07-29T11:25:19.231Z,100985.71
2022-07-29T11:31:14.370Z,100982.42
2022-07-29T11:36:59.448Z,100974.20
2022-07-29T11:39:36.292Z,100975.30
2022-07-29T11:42:46.566Z,100971.99
2022-07-29T11:45:43.489Z,100972.63
2022-07-29T11:48:28.352Z,100973.27
2022-07-29T11:51:11.013Z,100970.83
2022-07-29T11:53:52.452Z,100960.88
2022-07-29T11:56:28.572Z,100966.60
2022-07-29T11:59:08.410Z,100966.70
2022-07-29T12:02:02.441Z,100965.74
2022-07-29T12:04:53.943Z,100951.59
2022-07-29T12:07:35.093Z,100959.57
2022-07-29T12:10:11.441Z,100960.84
2022-07-29T12:12:56.634Z,100954.88
2022-07-29T12:15:46.298Z,100953.55
2022-07-29T12:21:18.340Z,100957.20
2022-07-29T12:24:05.465Z,100949.89
2022-07-29T12:26:53.315Z,100942.89
2022-07-29T12:29:35.030Z,100937.85
2022-07-29T12:32:14.698Z,100931.85
2022-07-29T12:34:52.214Z,100930.11
2022-07-29T12:37:37.610Z,100927.02
2022-07-29T12:40:17.642Z,100927.27
2022-07-29T12:43:11.450Z,100923.49
2022-07-29T12:45:46.688Z,100921.92
2022-07-29T12:48:19.531Z,100920.19
2022-07-29T12:51:01.004Z,100926.70
2022-07-29T12:53:34.224Z,100920.30
2022-07-29T12:59:25.963Z,100910.96
2022-07-29T13:02:01.063Z,100912.23
2022-07-29T13:04:37.940Z,100912.77
2022-07-29T13:07:12.074Z,100913.33
2022-07-29T13:09:48.138Z,100905.34
2022-07-29T13:12:21.931Z,100914.38
2022-07-29T13:14:54.161Z,100912.66
2022-07-29T13:17:32.704Z,100905.72
2022-07-29T13:20:13.625Z,100904.86
2022-07-29T13:22:49.502Z,100906.13
2022-07-29T13:25:30.045Z,100901.15
2022-07-29T13:28:02.875Z,100906.89
2022-07-29T13:30:35.611Z,100893.67
2022-07-29T13:33:08.941Z,100887.79
2022-07-29T13:35:41.449Z,100884.66
2022-07-29T13:38:13.626Z,100880.98
2022-07-29T13:40:47.477Z,100881.55
2022-07-29T13:43:19.749Z,100865.20
2022-07-29T13:45:52.069Z,100873.43
2022-07-29T13:48:24.611Z,100868.92
2022-07-29T13:50:56.929Z,100869.52
2022-07-29T13:53:30.177Z,100870.45
2022-07-29T13:56:02.580Z,100869.58
2022-07-29T13:58:35.115Z,100858.43
2022-07-29T14:01:07.254Z,100860.06
2022-07-29T14:03:45.666Z,100853.88
2022-07-29T14:06:18.398Z,100848.70
2022-07-29T14:08:54.555Z,100853.27
2022-07-29T14:11:26.836Z,100850.14
2022-07-29T14:13:59.139Z,100859.22
2022-07-29T14:16:31.439Z,100860.38
2022-07-29T14:19:04.290Z,100856.02
2022-07-29T14:21:36.969Z,100853.92
2022-07-29T14:24:17.718Z,100840.06
2022-07-29T14:26:54.087Z,100846.86
2022-07-29T14:29:36.968Z,100849.91
2022-07-29T14:32:12.584Z,100844.48
2022-07-29T14:34:45.030Z,100848.52
2022-07-29T14:37:17.385Z,100843.48
2022-07-29T14:39:49.465Z,100845.88
2022-07-29T14:42:22.046Z,100849.64
2022-07-29T14:44:54.410Z,100850.16
2022-07-29T14:47:27.533Z,100846.83
2022-07-29T14:50:00.871Z,100844.83
2022-07-29T14:52:33.103Z,100838.35
2022-07-29T14:55:06.127Z,100837.96
2022-07-29T14:57:56.387Z,100836.88
2022-07-29T15:00:34.532Z,100830.55
2022-07-29T15:03:06.930Z,100834.52
2022-07-29T15:05:43.782Z,100838.81
2022-07-29T15:08:15.971Z,100825.02
2022-07-29T15:10:48.144Z,100834.48
2022-07-29T15:13:20.866Z,100835.46
2022-07-29T15:15:57.002Z,100837.25
2022-07-29T15:18:32.743Z,100837.12
2022-07-29T15:21:08.695Z,100824.23
2022-07-29T15:23:41.090Z,100832.20
2022-07-29T15:26:13.348Z,100820.03
2022-07-29T15:28:45.623Z,100804.32
2022-07-29T15:31:19.939Z,100821.79
2022-07-29T15:33:57.581Z,100823.30
2022-07-29T15:37:00.908Z,100819.72
2022-07-29T15:39:23.470Z,100819.88
2022-07-29T15:41:56.242Z,100817.02
2022-07-29T15:44:28.909Z,100810.98
2022-07-29T15:47:05.738Z,100794.38
2022-07-29T15:49:48.434Z,100810.65
2022-07-29T15:52:25.369Z,100811.84
2022-07-29T15:54:59.201Z,100809.91
2022-07-29T15:57:31.771Z,100810.80
2022-07-29T16:00:04.774Z,100811.86
2022-07-29T16:02:40.212Z,100808.30
2022-07-29T16:05:12.823Z,100810.39
2022-07-29T16:07:45.379Z,100807.34
2022-07-29T16:10:17.542Z,100806.73
2022-07-29T16:12:49.635Z,100796.14
2022-07-29T16:15:21.897Z,100807.02
2022-07-29T16:17:54.415Z,100804.22
2022-07-29T16:20:26.685Z,100802.38
2022-07-29T16:22:59.912Z,100802.19
2022-07-29T16:25:57.430Z,100802.08
2022-07-29T16:28:24.329Z,100802.25
2022-07-29T16:30:57.472Z,100797.54
2022-07-29T16:33:54.851Z,100775.96
2022-07-29T16:36:22.893Z,100790.97
2022-07-29T16:38:55.705Z,100789.65
2022-07-29T16:41:29.841Z,100784.76
2022-07-29T16:44:02.094Z,100784.39
2022-07-29T16:46:37.843Z,100783.36
2022-07-29T16:49:12.691Z,100767.45
2022-07-29T16:51:51.558Z,100778.28
2022-07-29T16:54:24.210Z,100779.95
2022-07-29T16:56:57.737Z,100773.87
2022-07-29T16:59:30.435Z,100770.73
2022-07-29T17:02:03.627Z,100772.38
2022-07-29T17:04:36.814Z,100769.31
2022-07-29T17:07:09.574Z,100767.67
2022-07-29T17:09:41.768Z,100764.71
2022-07-29T17:12:13.854Z,100762.81
2022-07-29T17:14:46.722Z,100760.52
2022-07-29T17:17:20.958Z,100750.33
2022-07-29T17:20:12.596Z,100760.27
2022-07-29T17:22:50.086Z,100763.70
2022-07-29T17:25:23.590Z,100757.80
2022-07-29T17:28:00.693Z,100761.68
2022-07-29T17:30:33.620Z,100766.91
2022-07-29T17:33:06.239Z,100761.58
2022-07-29T17:35:55.836Z,100762.88
2022-07-29T17:38:28.299Z,100766.59
2022-07-29T17:41:00.660Z,100767.84
2022-07-29T17:43:33.080Z,100765.40
2022-07-29T17:46:05.443Z,100770.11
2022-07-29T17:48:38.017Z,100768.66
2022-07-29T17:51:10.716Z,100774.34
2022-07-29T17:53:43.002Z,100774.35
2022-07-29T17:56:15.712Z,100774.58
2022-07-29T17:58:48.853Z,100760.09
2022-07-29T18:01:21.606Z,100776.48
2022-07-29T18:03:57.200Z,100779.23
2022-07-29T18:06:32.013Z,100769.20
2022-07-29T18:09:04.707Z,100784.73
2022-07-29T18:11:37.591Z,100786.09
2022-07-29T18:14:11.405Z,100782.98
2022-07-29T18:16:43.527Z,100785.14
2022-07-29T18:19:16.494Z,100788.81
2022-07-29T18:21:54.134Z,100791.19
2022-07-29T18:24:29.470Z,100792.19
2022-07-29T18:27:02.373Z,100791.84
2022-07-29T18:29:35.035Z,100788.83
2022-07-29T18:32:09.745Z,100788.08
2022-07-29T18:34:40.476Z,100789.27
2022-07-29T18:37:12.601Z,100789.58
2022-07-29T18:39:44.782Z,100793.36
2022-07-29T18:42:17.103Z,100796.58
2022-07-29T18:44:49.878Z,100797.83
2022-07-29T18:47:22.169Z,100799.38
2022-07-29T18:49:54.439Z,100793.35
2022-07-29T18:52:26.701Z,100801.70
2022-07-29T18:54:58.987Z,100798.02
2022-07-29T18:57:53.623Z,100801.95
2022-07-29T19:00:24.908Z,100806.98
2022-07-29T19:02:57.897Z,100812.77
2022-07-29T19:05:30.311Z,100811.14
2022-07-29T19:08:02.603Z,100814.96
2022-07-29T19:10:34.809Z,100810.21
2022-07-29T19:13:06.945Z,100809.36
2022-07-29T19:15:39.280Z,100814.45
2022-07-29T19:18:13.332Z,100817.35
2022-07-29T19:20:45.620Z,100821.74
2022-07-29T19:23:18.693Z,100819.08
2022-07-29T19:25:53.726Z,100823.60
2022-07-29T19:28:27.742Z,100823.27
2022-07-29T19:31:00.787Z,100819.79
2022-07-29T19:33:33.422Z,100822.30
2022-07-29T19:36:05.857Z,100824.48
2022-07-29T19:38:39.599Z,100807.14
2022-07-29T19:41:13.073Z,100822.02
2022-07-29T19:43:50.942Z,100815.33
2022-07-29T19:46:29.034Z,100815.84
2022-07-29T19:49:01.857Z,100814.39
2022-07-29T19:51:34.131Z,100819.19
2022-07-29T19:54:07.324Z,100822.64
2022-07-29T19:56:42.072Z,100828.55
2022-07-29T19:59:39.147Z,100829.40
2022-07-29T20:02:12.555Z,100825.48
2022-07-29T20:04:45.147Z,100821.33
2022-07-29T20:07:18.317Z,100824.77
2022-07-29T20:09:50.491Z,100824.45
2022-07-29T20:12:23.650Z,100821.15
2022-07-29T20:14:56.148Z,100819.33
2022-07-29T20:17:29.014Z,100814.50
2022-07-29T20:20:02.599Z,100816.67
2022-07-29T20:22:35.055Z,100816.61
2022-07-29T20:25:09.884Z,100807.64
2022-07-29T20:27:43.148Z,100801.14
2022-07-29T20:30:16.308Z,100787.46
2022-07-29T20:32:50.660Z,100806.94
2022-07-29T20:35:23.368Z,100802.70
2022-07-29T20:37:56.852Z,100803.66
2022-07-29T20:40:29.817Z,100807.29
2022-07-29T20:43:02.266Z,100801.59
2022-07-29T20:45:34.734Z,100802.39
2022-07-29T20:48:08.238Z,100803.09
2022-07-29T20:50:40.870Z,100804.48
2022-07-29T20:53:14.996Z,100802.98
2022-07-29T20:56:12.586Z,100806.69
2022-07-29T21:01:43.748Z,100816.62
2022-07-29T21:04:16.683Z,100819.10
2022-07-29T21:06:48.945Z,100821.40
2022-07-29T21:09:21.229Z,100824.54
2022-07-29T21:11:54.023Z,100826.09
2022-07-29T21:14:46.812Z,100829.02
2022-07-29T21:17:22.743Z,100832.64
2022-07-29T21:19:55.469Z,100837.52
2022-07-29T21:22:27.844Z,100837.20
2022-07-29T21:24:59.920Z,100840.15
2022-07-29T21:27:49.920Z,100842.59
2022-07-29T21:30:23.387Z,100843.08
2022-07-29T21:32:56.636Z,100843.02
2022-07-29T21:36:01.614Z,100833.69
2022-07-29T21:38:22.661Z,100827.02
2022-07-29T21:40:55.265Z,100823.89
2022-07-29T21:43:28.703Z,100825.55
2022-07-29T21:46:04.157Z,100824.29
2022-07-29T21:48:37.624Z,100823.00
2022-07-29T21:51:11.282Z,100811.14
2022-07-29T21:53:43.651Z,100821.20
2022-07-29T21:56:16.099Z,100805.52
2022-07-29T21:58:50.819Z,100819.39
2022-07-29T22:01:23.226Z,100826.84
2022-07-29T22:03:55.857Z,100825.67
2022-07-29T22:06:28.224Z,100810.88
2022-07-29T22:09:00.379Z,100827.98
2022-07-29T22:11:32.908Z,100828.34
2022-07-29T22:14:05.179Z,100827.89
2022-07-29T22:16:37.805Z,100833.60
2022-07-29T22:19:10.397Z,100833.86
2022-07-29T22:21:43.138Z,100831.70
2022-07-29T22:24:15.529Z,100828.94
2022-07-29T22:26:47.783Z,100830.11
2022-07-29T22:29:20.175Z,100829.59
2022-07-29T22:31:53.615Z,100834.45
2022-07-29T22:34:29.090Z,100829.54
2022-07-29T22:37:10.147Z,100832.30
2022-07-29T22:39:42.187Z,100838.23
2022-07-29T22:42:14.448Z,100816.93
2022-07-29T22:44:46.681Z,100830.87
2022-07-29T22:47:19.295Z,100831.42
2022-07-29T22:50:12.267Z,100826.59
2022-07-29T22:52:44.690Z,100825.66
2022-07-29T22:55:18.573Z,100822.37
2022-07-29T22:57:51.172Z,100821.93
2022-07-29T23:00:24.263Z,100818.90
2022-07-29T23:02:56.746Z,100816.77
2022-07-29T23:05:29.097Z,100807.70
2022-07-29T23:08:06.785Z,100810.45
2022-07-29T23:10:38.917Z,100806.52
2022-07-29T23:13:11.341Z,100805.02
2022-07-29T23:15:44.402Z,100787.67
2022-07-29T23:18:16.931Z,100794.14
2022-07-29T23:20:49.015Z,100787.81
2022-07-29T23:23:21.289Z,100787.85
2022-07-29T23:25:53.698Z,100789.64
2022-07-29T23:28:26.282Z,100789.35
2022-07-29T23:30:59.596Z,100788.77
2022-07-29T23:33:31.888Z,100772.72
2022-07-29T23:36:04.758Z,100766.60
2022-07-29T23:38:40.890Z,100760.08
2022-07-29T23:41:15.004Z,100758.67
2022-07-29T23:43:47.141Z,100762.81
2022-07-29T23:46:19.359Z,100770.07
2022-07-29T23:48:56.293Z,100763.26
2022-07-29T23:51:29.706Z,100762.64
2022-07-29T23:54:01.843Z,100757.80
2022-07-29T23:56:34.039Z,100754.64
2022-07-29T23:59:06.343Z,100746.88
